Time;durP1;ratioP1;P1;durP2;ratioP2;P2;SDS_P1;SDS_P2;PMS_P1;PMS_P2;Temp;Humidity;BMP_temperature;BMP_pressure;BME280_temperature;BME280_humidity;BME280_pressure;Samples;Min_cycle;Max_cycle;Signal;HPM_P1;HPM_P2
2021/11/20 00:00:51;;;;;;;4.53;2.63;;;11.30;99.90;11.30;101437.00;;;;4935876;28;92877;-64
2021/11/20 00:03:18;;;;;;;3.33;2.87;;;11.30;99.90;11.30;101441.00;;;;4934864;28;94268;-64
2021/11/20 00:05:48;;;;;;;5.37;2.83;;;11.30;99.90;11.30;101440.00;;;;4935798;28;92934;-64
2021/11/20 00:08:14;;;;;;;4.07;2.20;;;11.30;99.90;11.30;101450.00;;;;4935345;28;92960;-63
2021/11/20 00:10:45;;;;;;;4.57;2.73;;;11.30;99.90;11.30;101461.00;;;;4934544;28;108933;-64
2021/11/20 00:13:13;;;;;;;3.80;2.93;;;11.30;99.90;11.30;101457.00;;;;4919209;28;92322;-64
2021/11/20 00:15:45;;;;;;;3.33;2.67;;;11.30;99.90;11.30;101448.00;;;;4915430;28;93157;-65
2021/11/20 00:18:11;;;;;;;3.73;2.43;;;11.30;99.90;11.30;101441.00;;;;4915039;28;92730;-65
2021/11/20 00:20:45;;;;;;;4.97;2.53;;;11.30;99.90;11.30;101439.00;;;;4913820;28;108230;-64
2021/11/20 00:23:13;;;;;;;4.27;3.30;;;11.30;99.90;11.30;101438.00;;;;4915468;28;92970;-65
2021/11/20 00:25:48;;;;;;;3.93;2.73;;;11.30;99.90;11.30;101445.00;;;;4915457;28;94532;-63
2021/11/20 00:28:21;;;;;;;8.00;2.43;;;11.30;99.90;11.30;101448.00;;;;4915371;28;92815;-63
2021/11/20 00:30:54;;;;;;;5.17;2.97;;;11.30;99.90;11.30;101440.00;;;;4915808;28;92872;-64
2021/11/20 00:33:24;;;;;;;4.60;2.73;;;11.40;99.90;11.30;101429.00;;;;4914538;28;93897;-63
2021/11/20 00:35:54;;;;;;;5.13;2.83;;;11.30;99.90;11.30;101447.00;;;;4913569;28;93084;-64
2021/11/20 00:38:20;;;;;;;4.80;2.87;;;11.40;99.90;11.30;101446.00;;;;4915564;28;92115;-63
2021/11/20 00:40:59;;;;;;;4.43;3.07;;;11.30;99.90;11.30;101436.00;;;;4928753;28;92881;-65
2021/11/20 00:43:26;;;;;;;2.50;2.17;;;11.30;99.90;11.30;101432.00;;;;4934032;28;105629;-66
2021/11/20 00:45:53;;;;;;;4.67;2.53;;;11.30;99.90;11.30;101442.00;;;;4934115;28;93837;-65
2021/11/20 00:48:22;;;;;;;4.07;2.87;;;11.30;99.90;11.30;101442.00;;;;4934802;28;92827;-64
2021/11/20 00:50:55;;;;;;;4.70;2.60;;;11.30;99.90;11.30;101443.00;;;;4935183;28;93084;-65
2021/11/20 00:53:21;;;;;;;5.73;3.30;;;11.30;99.90;11.30;101434.00;;;;4934093;28;92872;-64
2021/11/20 00:55:47;;;;;;;4.37;3.00;;;11.40;99.90;11.30;101439.00;;;;4934321;28;93105;-64
2021/11/20 00:58:14;;;;;;;3.57;3.00;;;11.30;99.90;11.30;101442.00;;;;4935127;28;93022;-65
2021/11/20 01:00:48;;;;;;;3.90;2.67;;;11.30;99.90;11.30;101431.00;;;;4949059;28;93075;-65
2021/11/20 01:03:15;;;;;;;3.97;2.97;;;11.30;99.90;11.20;101415.00;;;;4934607;28;100796;-63
2021/11/20 01:05:42;;;;;;;6.30;3.47;;;11.30;99.90;11.30;101418.00;;;;4934554;28;96080;-64
2021/11/20 01:08:11;;;;;;;5.27;3.30;;;11.30;99.90;11.30;101429.00;;;;4924400;28;92985;-65
2021/11/20 01:10:42;;;;;;;4.37;3.13;;;11.30;99.90;11.30;101448.00;;;;4914640;28;94072;-64
2021/11/20 01:13:10;;;;;;;4.93;3.27;;;11.30;99.90;11.30;101446.00;;;;4914492;28;93182;-64
2021/11/20 01:15:41;;;;;;;7.73;3.70;;;11.30;99.90;11.30;101447.00;;;;4915116;28;92744;-65
2021/11/20 01:18:09;;;;;;;4.77;3.80;;;11.30;99.90;11.30;101445.00;;;;4915342;28;93005;-65
2021/11/20 01:20:36;;;;;;;9.40;3.47;;;11.30;99.90;11.30;101455.00;;;;4914596;28;92824;-64
2021/11/20 01:23:02;;;;;;;10.00;3.27;;;11.30;99.90;11.30;101449.00;;;;4923636;28;93056;-65
2021/11/20 01:25:29;;;;;;;5.77;3.43;;;11.30;99.90;11.30;101441.00;;;;4924027;28;109735;-64
2021/11/20 01:27:55;;;;;;;3.47;2.60;;;11.30;99.90;11.30;101441.00;;;;4915218;28;92294;-64
2021/11/20 01:30:22;;;;;;;9.77;3.67;;;11.40;99.90;11.30;101439.00;;;;4914748;28;92699;-63
2021/11/20 01:32:48;;;;;;;5.27;3.47;;;11.30;99.90;11.30;101434.00;;;;4914026;28;100066;-64
2021/11/20 01:35:16;;;;;;;4.23;3.03;;;11.30;99.90;11.30;101435.00;;;;4913442;28;93759;-64
2021/11/20 01:37:43;;;;;;;7.53;3.20;;;11.40;99.90;11.30;101439.00;;;;4915076;28;92845;-64
2021/11/20 01:40:17;;;;;;;5.20;3.73;;;11.30;99.90;11.30;101442.00;;;;4914753;28;92682;-64
2021/11/20 01:42:43;;;;;;;4.87;3.17;;;11.40;99.90;11.30;101451.00;;;;4914886;28;93401;-64
2021/11/20 01:45:34;;;;;;;5.00;3.60;;;11.40;99.90;11.40;101451.00;;;;4913369;28;117172;-64
2021/11/20 01:49:15;;;;;;;7.80;4.43;;;11.40;99.90;11.30;101439.00;;;;4914512;28;93291;-64
2021/11/20 01:51:56;;;;;;;6.70;4.27;;;11.40;99.90;11.40;101441.00;;;;4905644;28;93096;-64
2021/11/20 01:55:01;;;;;;;5.30;3.83;;;11.40;99.90;11.40;101444.00;;;;4911818;28;100288;-64
2021/11/20 01:58:19;;;;;;;7.17;4.53;;;11.40;99.90;11.40;101442.00;;;;4914310;28;93132;-63
2021/11/20 02:01:14;;;;;;;6.90;3.67;;;11.40;99.90;11.40;101446.00;;;;4914975;28;92990;-64
2021/11/20 02:04:24;;;;;;;9.30;3.43;;;11.40;99.90;11.40;101426.00;;;;4911801;28;94404;-64
2021/11/20 02:07:12;;;;;;;8.43;4.50;;;11.40;99.90;11.40;101423.00;;;;4912049;28;93850;-65
2021/11/20 02:09:53;;;;;;;7.80;4.70;;;11.50;99.90;11.40;101427.00;;;;4915123;28;93194;-64
2021/11/20 02:12:25;;;;;;;7.10;4.07;;;11.50;99.90;11.50;101426.00;;;;4912917;28;93020;-64
2021/11/20 02:14:52;;;;;;;8.70;3.40;;;11.50;99.90;11.50;101434.00;;;;4914028;28;92831;-65
2021/11/20 02:17:38;;;;;;;10.60;3.43;;;11.50;99.90;11.40;101438.00;;;;4930993;28;93203;-64
2021/11/20 02:20:16;;;;;;;6.10;4.37;;;11.50;99.90;11.50;101432.00;;;;4932693;28;92846;-63
2021/11/20 02:22:42;;;;;;;5.53;3.70;;;11.50;99.90;11.50;101430.00;;;;4931954;28;92461;-64
2021/11/20 02:25:07;;;;;;;7.53;4.70;;;11.50;99.90;11.50;101431.00;;;;4932941;28;109191;-64
2021/11/20 02:27:38;;;;;;;7.40;5.10;;;11.50;99.90;11.50;101430.00;;;;4932265;28;123091;-64
2021/11/20 02:30:17;;;;;;;7.90;4.77;;;11.50;99.90;11.50;101425.00;;;;4932960;28;93850;-64
2021/11/20 02:32:44;;;;;;;7.63;5.07;;;11.50;99.90;11.50;101418.00;;;;4948324;28;93071;-65
2021/11/20 02:35:13;;;;;;;4.13;3.33;;;11.50;99.90;11.50;101433.00;;;;4928648;28;95883;-65
2021/11/20 02:37:41;;;;;;;5.40;4.23;;;11.50;99.90;11.40;101414.00;;;;4917367;28;94207;-64
2021/11/20 02:40:09;;;;;;;5.47;3.97;;;11.40;99.90;11.40;101414.00;;;;4916413;28;92982;-64
2021/11/20 02:42:36;;;;;;;10.47;5.37;;;11.50;99.90;11.40;101416.00;;;;4916304;28;96923;-64
2021/11/20 02:45:31;;;;;;;6.50;3.47;;;11.40;99.90;11.40;101416.00;;;;4933780;28;93065;-64
2021/11/20 02:47:58;;;;;;;7.27;4.23;;;11.40;99.90;11.40;101409.00;;;;4936562;28;91824;-65
2021/11/20 02:50:40;;;;;;;10.20;5.40;;;11.50;99.90;11.40;101414.00;;;;4936177;28;93218;-64
2021/11/20 02:53:12;;;;;;;7.07;3.63;;;11.50;99.90;11.40;101418.00;;;;4935904;28;93025;-64
2021/11/20 02:55:47;;;;;;;6.80;3.83;;;11.40;99.90;11.40;101417.00;;;;4935899;28;93821;-65
2021/11/20 02:58:15;;;;;;;5.73;3.77;;;11.40;99.90;11.40;101415.00;;;;4936166;28;93051;-64
2021/11/20 03:00:41;;;;;;;9.47;4.60;;;11.50;99.90;11.40;101405.00;;;;4935821;28;93463;-63
2021/11/20 03:03:07;;;;;;;11.50;5.77;;;11.40;99.90;11.40;101406.00;;;;4936214;28;92882;-65
2021/11/20 03:05:33;;;;;;;8.70;5.10;;;11.40;99.90;11.40;101402.00;;;;4935345;28;108949;-64
2021/11/20 03:07:58;;;;;;;8.13;4.73;;;11.30;99.90;11.30;101409.00;;;;4934845;28;122899;-65
2021/11/20 03:10:24;;;;;;;6.97;4.83;;;11.40;99.90;11.30;101399.00;;;;4930295;28;93012;-64
2021/11/20 03:12:51;;;;;;;7.27;4.43;;;11.30;99.90;11.30;101407.00;;;;4917060;28;92099;-63
2021/11/20 03:15:17;;;;;;;8.77;5.73;;;11.30;99.90;11.20;101410.00;;;;4916972;28;93092;-64
2021/11/20 03:17:43;;;;;;;12.20;6.13;;;11.30;99.90;11.20;101414.00;;;;4916181;28;94050;-63
2021/11/20 03:20:14;;;;;;;7.97;5.17;;;11.20;99.90;11.10;101397.00;;;;4918084;28;93899;-64
2021/11/20 03:22:51;;;;;;;10.00;5.17;;;11.20;99.90;11.10;101409.00;;;;4935832;28;92800;-64
2021/11/20 03:25:18;;;;;;;8.23;6.20;;;11.10;99.90;11.10;101405.00;;;;4936010;28;92961;-64
2021/11/20 03:27:44;;;;;;;8.87;5.33;;;11.10;99.90;11.00;101390.00;;;;4936158;28;93290;-63
2021/11/20 03:30:12;;;;;;;7.90;5.63;;;11.10;99.90;11.00;101400.00;;;;4933924;28;123020;-63
2021/11/20 03:32:38;;;;;;;10.30;5.43;;;11.00;99.90;11.00;101395.00;;;;4936101;28;92974;-64
2021/11/20 03:35:06;;;;;;;15.00;6.83;;;11.10;99.90;11.00;101399.00;;;;4935435;28;92723;-64
2021/11/20 03:37:32;;;;;;;6.70;5.43;;;11.00;99.90;10.90;101394.00;;;;4935699;28;92907;-65
2021/11/20 03:39:58;;;;;;;8.47;5.50;;;11.00;99.90;10.90;101385.00;;;;4916485;28;93190;-64
2021/11/20 03:42:23;;;;;;;8.97;5.67;;;10.90;99.90;10.90;101389.00;;;;4916148;28;93099;-66
2021/11/20 03:44:49;;;;;;;10.13;5.20;;;11.00;99.90;10.90;101390.00;;;;4913265;28;101644;-65
2021/11/20 03:47:16;;;;;;;8.80;6.10;;;10.90;99.90;10.80;101395.00;;;;4915165;28;93530;-64
2021/11/20 03:49:44;;;;;;;9.17;6.80;;;10.90;99.90;10.80;101395.00;;;;4915674;28;97098;-65
2021/11/20 03:52:12;;;;;;;8.73;5.80;;;10.80;99.90;10.80;101398.00;;;;4916262;28;92819;-65
2021/11/20 03:54:39;;;;;;;9.53;5.70;;;10.80;99.90;10.70;101397.00;;;;4915943;28;92864;-65
2021/11/20 03:57:06;;;;;;;9.53;6.17;;;10.80;99.90;10.70;101394.00;;;;4914861;28;123747;-65
2021/11/20 03:59:32;;;;;;;10.60;7.03;;;10.80;99.90;10.70;101401.00;;;;4915679;28;94121;-66
2021/11/20 04:01:59;;;;;;;10.17;5.93;;;10.80;99.90;10.70;101397.00;;;;4915656;28;110680;-65
2021/11/20 04:04:27;;;;;;;9.87;5.93;;;10.80;99.90;10.70;101406.00;;;;4916301;28;93310;-64
2021/11/20 04:06:53;;;;;;;9.50;5.83;;;10.80;99.90;10.70;101407.00;;;;4915607;28;93180;-65
2021/11/20 04:09:18;;;;;;;9.33;6.23;;;10.80;99.90;10.80;101395.00;;;;4913981;28;121381;-65
2021/11/20 04:11:48;;;;;;;12.90;6.37;;;10.80;99.90;10.80;101404.00;;;;4914984;28;110785;-65
2021/11/20 04:14:16;;;;;;;9.07;5.47;;;10.80;99.90;10.80;101395.00;;;;4915560;28;96289;-64
2021/11/20 04:16:43;;;;;;;7.77;5.70;;;10.80;99.90;10.80;101409.00;;;;4915295;28;93395;-65
2021/11/20 04:19:09;;;;;;;10.10;5.57;;;10.80;99.90;10.80;101395.00;;;;4914945;28;110552;-65
2021/11/20 04:21:36;;;;;;;12.30;6.00;;;10.80;99.90;10.80;101396.00;;;;4915876;28;92799;-65
2021/11/20 04:24:04;;;;;;;9.73;5.40;;;10.80;99.90;10.80;101400.00;;;;4916260;28;92886;-64
2021/11/20 04:26:30;;;;;;;8.13;5.70;;;10.80;99.90;10.80;101399.00;;;;4916458;28;92839;-65
2021/11/20 04:28:56;;;;;;;7.50;4.93;;;10.80;99.90;10.80;101397.00;;;;4915435;28;93346;-64
2021/11/20 04:31:22;;;;;;;6.70;4.80;;;10.80;99.90;10.80;101390.00;;;;4921723;28;94387;-64
2021/11/20 04:33:50;;;;;;;5.77;5.17;;;10.80;99.90;10.80;101398.00;;;;4935195;28;93928;-64
2021/11/20 04:36:18;;;;;;;7.87;6.17;;;10.80;99.90;10.80;101398.00;;;;4934061;28;93874;-64
2021/11/20 04:38:44;;;;;;;10.80;6.87;;;10.80;99.90;10.80;101392.00;;;;4934751;28;92910;-64
2021/11/20 04:41:11;;;;;;;7.23;5.03;;;10.80;99.90;10.70;101398.00;;;;4934420;28;104426;-64
2021/11/20 04:43:37;;;;;;;9.77;5.60;;;10.80;99.90;10.70;101400.00;;;;4934730;28;93047;-64
2021/11/20 04:46:03;;;;;;;11.97;5.30;;;10.70;99.90;10.70;101395.00;;;;4934024;28;118128;-64
2021/11/20 04:48:29;;;;;;;12.13;5.97;;;10.70;99.90;10.70;101389.00;;;;4932473;28;95195;-64
2021/11/20 04:50:56;;;;;;;14.00;6.00;;;10.70;99.90;10.70;101386.00;;;;4934973;28;92326;-64
2021/11/20 04:53:23;;;;;;;6.57;4.50;;;10.70;99.90;10.70;101399.00;;;;4935156;28;93093;-65
2021/11/20 04:55:49;;;;;;;10.60;5.50;;;10.60;99.90;10.60;101393.00;;;;4934515;28;94067;-64
2021/11/20 04:58:16;;;;;;;9.97;5.57;;;10.70;99.90;10.60;101384.00;;;;4922365;28;93852;-64
2021/11/20 05:00:48;;;;;;;7.80;5.33;;;10.70;99.90;10.60;101391.00;;;;4914683;28;92981;-63
2021/11/20 05:03:14;;;;;;;8.40;5.43;;;10.70;99.90;10.60;101389.00;;;;4915065;28;93037;-63
2021/11/20 05:05:44;;;;;;;10.30;4.53;;;10.70;99.90;10.60;101402.00;;;;4914755;28;93971;-64
2021/11/20 05:08:10;;;;;;;10.73;6.10;;;10.70;99.90;10.60;101393.00;;;;4914526;28;92947;-64
2021/11/20 05:10:39;;;;;;;7.93;5.47;;;10.60;99.90;10.60;101394.00;;;;4914645;28;92942;-64
2021/11/20 05:13:06;;;;;;;9.43;5.37;;;10.60;99.90;10.60;101398.00;;;;4914459;28;92781;-64
2021/11/20 05:15:35;;;;;;;13.30;6.13;;;10.70;99.90;10.60;101401.00;;;;4914879;28;92982;-63
2021/11/20 05:18:01;;;;;;;9.67;6.67;;;10.60;99.90;10.50;101398.00;;;;4914786;28;92798;-64
2021/11/20 05:20:27;;;;;;;11.23;5.93;;;10.60;99.90;10.50;101401.00;;;;4914518;28;92947;-65
2021/11/20 05:22:53;;;;;;;10.03;6.63;;;10.60;99.90;10.50;101398.00;;;;4914144;28;102696;-66
2021/11/20 05:25:20;;;;;;;9.47;5.60;;;10.60;99.90;10.50;101401.00;;;;4918040;28;117823;-65
2021/11/20 05:27:47;;;;;;;9.23;6.33;;;10.50;99.90;10.40;101392.00;;;;4933783;28;93896;-65
2021/11/20 05:30:17;;;;;;;13.60;6.90;;;10.50;99.90;10.40;101392.00;;;;4934969;28;92890;-65
2021/11/20 05:32:48;;;;;;;12.87;7.40;;;10.40;99.90;10.40;101400.00;;;;4934508;28;93349;-65
2021/11/20 05:35:17;;;;;;;16.00;7.33;;;10.40;99.90;10.30;101406.00;;;;4933685;28;93088;-65
2021/11/20 05:37:43;;;;;;;12.30;6.67;;;10.40;99.90;10.30;101396.00;;;;4934297;28;92768;-65
2021/11/20 05:40:13;;;;;;;16.00;7.83;;;10.40;99.90;10.30;101403.00;;;;4931780;28;92153;-65
2021/11/20 05:42:48;;;;;;;12.50;7.23;;;10.30;99.90;10.30;101401.00;;;;4928436;28;93095;-65
2021/11/20 05:45:16;;;;;;;9.43;6.20;;;10.30;99.90;10.30;101400.00;;;;4914283;28;92971;-64
2021/11/20 05:47:42;;;;;;;9.83;6.30;;;10.30;99.90;10.30;101401.00;;;;4914077;28;93872;-64
2021/11/20 05:50:09;;;;;;;10.57;6.83;;;10.20;99.90;10.20;101394.00;;;;4914094;28;110363;-65
2021/11/20 05:52:35;;;;;;;15.80;7.60;;;10.30;99.90;10.20;101404.00;;;;4914936;28;93230;-64
2021/11/20 05:55:00;;;;;;;11.23;6.63;;;10.30;99.90;10.20;101401.00;;;;4933436;28;93489;-64
2021/11/20 05:57:26;;;;;;;11.33;7.27;;;10.30;99.90;10.20;101389.00;;;;4932783;28;123041;-65
2021/11/20 05:59:52;;;;;;;13.67;8.50;;;10.20;99.90;10.20;101380.00;;;;4932978;28;95993;-65
2021/11/20 06:02:18;;;;;;;9.87;7.47;;;10.30;99.90;10.20;101382.00;;;;4933177;28;92756;-64
2021/11/20 06:04:44;;;;;;;8.90;6.47;;;10.20;99.90;10.20;101391.00;;;;4933567;28;93369;-65
2021/11/20 06:07:11;;;;;;;14.87;7.40;;;10.20;99.90;10.10;101386.00;;;;4932924;28;92933;-64
2021/11/20 06:09:39;;;;;;;11.80;7.07;;;10.20;99.90;10.10;101383.00;;;;4933756;28;92852;-65
2021/11/20 06:12:07;;;;;;;9.00;6.03;;;10.10;99.90;10.10;101386.00;;;;4935350;28;93849;-64
2021/11/20 06:14:32;;;;;;;13.40;8.97;;;10.10;99.90;10.10;101399.00;;;;4936676;28;93911;-66
2021/11/20 06:16:58;;;;;;;14.53;7.83;;;10.10;99.90;10.00;101400.00;;;;4936030;28;122857;-64
2021/11/20 06:19:24;;;;;;;12.80;7.83;;;10.10;99.90;10.00;101406.00;;;;4935930;28;109277;-64
2021/11/20 06:21:50;;;;;;;9.33;7.13;;;10.10;99.90;10.00;101403.00;;;;4936815;28;92901;-64
2021/11/20 06:24:16;;;;;;;14.87;8.07;;;10.10;99.90;10.00;101407.00;;;;4921579;28;106284;-64
2021/11/20 06:26:42;;;;;;;10.40;7.63;;;10.00;99.90;10.00;101415.00;;;;4916602;28;108303;-64
2021/11/20 06:29:08;;;;;;;15.20;6.97;;;10.00;99.90;10.00;101423.00;;;;4918253;28;92095;-64
2021/11/20 06:31:34;;;;;;;13.20;7.60;;;10.00;99.90;9.90;101427.00;;;;4917635;28;94576;-63
2021/11/20 06:34:00;;;;;;;15.47;8.63;;;10.00;99.90;9.90;101427.00;;;;4925153;28;124265;-64
2021/11/20 06:36:28;;;;;;;14.60;8.10;;;10.00;99.90;9.90;101432.00;;;;4935029;28;93889;-66
2021/11/20 06:38:53;;;;;;;13.17;7.77;;;10.00;99.90;9.90;101428.00;;;;4934485;28;93172;-65
2021/11/20 06:41:20;;;;;;;16.43;8.60;;;9.90;99.90;9.90;101428.00;;;;4933721;28;92982;-65
2021/11/20 06:43:46;;;;;;;15.47;9.50;;;10.00;99.90;9.90;101433.00;;;;4930462;28;94081;-66
2021/11/20 06:46:14;;;;;;;13.37;7.23;;;9.90;99.90;9.90;101437.00;;;;4932081;28;119234;-65
2021/11/20 06:48:40;;;;;;;12.77;8.00;;;9.90;99.90;9.90;101427.00;;;;4933779;28;92610;-65
2021/11/20 06:51:08;;;;;;;19.63;8.87;;;9.90;99.90;9.90;101432.00;;;;4932544;28;92694;-65
2021/11/20 06:53:34;;;;;;;19.07;8.30;;;9.90;99.90;9.80;101438.00;;;;4933502;28;92300;-65
2021/11/20 06:56:01;;;;;;;14.97;8.73;;;9.90;99.90;9.80;101431.00;;;;4933049;28;95399;-66
2021/11/20 07:01:11;;;;;;;13.50;9.23;;;9.90;99.90;9.80;101430.00;;;;4930758;28;94222;-67
2021/11/20 07:03:44;;;;;;;15.30;8.67;;;9.90;99.90;9.80;101430.00;;;;4930581;28;105755;-67
2021/11/20 07:06:23;;;;;;;14.23;8.87;;;9.90;99.90;9.80;101434.00;;;;4928494;28;93309;-67
2021/11/20 07:08:53;;;;;;;14.60;8.27;;;9.90;99.90;9.80;101424.00;;;;4929884;28;93198;-67
2021/11/20 07:11:19;;;;;;;12.67;8.20;;;9.90;99.90;9.80;101421.00;;;;4933214;28;92853;-67
2021/11/20 07:13:45;;;;;;;12.50;8.03;;;9.80;99.90;9.80;101434.00;;;;4933017;28;93481;-69
2021/11/20 07:16:12;;;;;;;15.77;8.40;;;9.80;99.90;9.80;101428.00;;;;4929028;28;93167;-66
2021/11/20 07:18:41;;;;;;;13.27;8.47;;;9.80;99.90;9.80;101427.00;;;;4933890;28;92434;-67
2021/11/20 07:21:08;;;;;;;13.87;8.67;;;9.90;99.90;9.80;101421.00;;;;4933253;28;92890;-67
2021/11/20 07:23:34;;;;;;;12.40;8.93;;;9.80;99.90;9.80;101423.00;;;;4935108;28;93564;-65
2021/11/20 07:26:00;;;;;;;17.77;9.63;;;9.90;99.90;9.80;101419.00;;;;4931179;28;108797;-66
2021/11/20 07:28:29;;;;;;;14.57;9.53;;;9.80;99.90;9.80;101429.00;;;;4931582;28;110656;-66
2021/11/20 07:30:55;;;;;;;10.97;7.97;;;9.90;99.90;9.80;101418.00;;;;4932714;28;92932;-66
2021/11/20 07:33:22;;;;;;;14.30;9.30;;;9.80;99.90;9.80;101416.00;;;;4933224;28;93669;-66
2021/11/20 07:35:55;;;;;;;12.90;7.43;;;9.90;99.90;9.80;101420.00;;;;4931994;28;97064;-66
2021/11/20 07:38:27;;;;;;;13.63;7.83;;;9.90;99.90;9.80;101414.00;;;;4931098;28;92811;-67
2021/11/20 07:40:53;;;;;;;15.73;10.20;;;9.90;99.90;9.80;101407.00;;;;4930552;28;93463;-66
2021/11/20 07:43:19;;;;;;;14.93;8.90;;;9.90;99.90;9.90;101420.00;;;;4926680;28;121736;-66
2021/11/20 07:45:45;;;;;;;15.17;8.93;;;9.90;99.90;9.90;101417.00;;;;4932234;28;93172;-66
2021/11/20 07:48:18;;;;;;;17.37;8.97;;;9.90;99.90;9.90;101407.00;;;;4932866;28;92870;-67
2021/11/20 07:50:46;;;;;;;13.40;8.03;;;9.90;99.90;9.90;101412.00;;;;4929774;28;94095;-66
2021/11/20 07:53:14;;;;;;;12.50;8.13;;;9.90;99.90;9.90;101410.00;;;;4932991;28;94374;-65
2021/11/20 07:55:40;;;;;;;12.40;8.17;;;10.00;99.90;9.90;101409.00;;;;4931677;28;93647;-65
2021/11/20 07:58:07;;;;;;;10.37;7.83;;;10.00;99.90;9.90;101406.00;;;;4932339;28;97462;-65
2021/11/20 08:00:35;;;;;;;15.23;9.33;;;10.00;99.90;9.90;101406.00;;;;4932429;28;92816;-65
2021/11/20 08:03:01;;;;;;;12.40;8.23;;;10.00;99.90;10.00;101400.00;;;;4931779;28;99123;-64
2021/11/20 08:05:28;;;;;;;14.53;8.07;;;10.00;99.90;10.00;101404.00;;;;4930901;28;122462;-64
2021/11/20 08:07:55;;;;;;;15.57;8.50;;;10.00;99.90;10.00;101397.00;;;;4933446;28;92151;-65
2021/11/20 08:10:29;;;;;;;12.93;8.43;;;10.00;99.90;10.00;101391.00;;;;4931894;28;92843;-64
2021/11/20 08:12:56;;;;;;;14.97;8.67;;;10.10;99.90;10.00;101390.00;;;;4931926;28;93720;-65
2021/11/20 08:15:23;;;;;;;13.50;9.10;;;10.00;99.90;10.00;101385.00;;;;4929505;28;94144;-64
2021/11/20 08:17:49;;;;;;;14.33;7.77;;;10.10;99.90;10.10;101393.00;;;;4932633;28;92945;-64
2021/11/20 08:20:18;;;;;;;13.63;8.93;;;10.10;99.90;10.10;101385.00;;;;4932550;28;92831;-64
2021/11/20 08:22:45;;;;;;;13.47;9.20;;;10.10;99.90;10.10;101388.00;;;;4931367;28;99291;-64
2021/11/20 08:25:17;;;;;;;13.83;9.67;;;10.20;99.90;10.20;101389.00;;;;4929057;28;99547;-65
2021/11/20 08:27:43;;;;;;;14.60;8.00;;;10.20;99.90;10.20;101379.00;;;;4930547;28;92739;-64
2021/11/20 08:30:12;;;;;;;14.70;8.53;;;10.20;99.90;10.20;101386.00;;;;4931792;28;92756;-64
2021/11/20 08:32:38;;;;;;;14.47;8.13;;;10.20;99.90;10.20;101382.00;;;;4932518;28;93151;-65
2021/11/20 08:35:05;;;;;;;13.80;8.17;;;10.30;99.90;10.20;101387.00;;;;4931488;28;93066;-65
2021/11/20 08:37:33;;;;;;;11.93;8.20;;;10.30;99.90;10.20;101374.00;;;;4927875;28;92990;-65
2021/11/20 08:40:00;;;;;;;17.53;7.83;;;10.30;99.90;10.30;101369.00;;;;4925580;28;94145;-64
2021/11/20 08:42:26;;;;;;;11.93;8.63;;;10.30;99.90;10.30;101372.00;;;;4931224;28;94314;-64
2021/11/20 08:44:53;;;;;;;12.03;7.53;;;10.30;99.90;10.30;101377.00;;;;4927351;28;92898;-64
2021/11/20 08:47:19;;;;;;;14.07;8.43;;;10.30;99.90;10.30;101370.00;;;;4932392;28;92860;-64
2021/11/20 08:49:45;;;;;;;15.73;8.47;;;10.40;99.90;10.40;101368.00;;;;4931617;28;93123;-64
2021/11/20 08:52:12;;;;;;;12.87;7.77;;;10.40;99.90;10.40;101379.00;;;;4930178;28;106719;-64
2021/11/20 08:54:38;;;;;;;10.57;7.53;;;10.40;99.90;10.40;101380.00;;;;4931789;28;93545;-64
2021/11/20 08:57:05;;;;;;;20.23;8.40;;;10.40;99.90;10.50;101373.00;;;;4931678;28;92836;-64
2021/11/20 08:59:32;;;;;;;14.77;7.20;;;10.50;99.90;10.50;101373.00;;;;4931976;28;93033;-65
2021/11/20 09:02:20;;;;;;;10.57;7.77;;;10.50;99.90;10.50;101377.00;;;;4929641;28;93149;-63
2021/11/20 09:05:35;;;;;;;11.03;7.60;;;10.60;99.90;10.50;101374.00;;;;4931209;28;94151;-65
2021/11/20 09:08:06;;;;;;;20.20;7.83;;;10.60;99.90;10.60;101366.00;;;;4920491;28;93321;-64
2021/11/20 09:11:09;;;;;;;15.10;8.33;;;10.60;99.90;10.60;101373.00;;;;4931507;28;92846;-65
2021/11/20 09:13:59;;;;;;;12.73;8.10;;;10.60;99.90;10.70;101375.00;;;;4928030;28;93406;-64
2021/11/20 09:16:26;;;;;;;13.73;8.03;;;10.70;99.90;10.70;101367.00;;;;4926054;28;93172;-65
2021/11/20 09:18:57;;;;;;;10.83;7.13;;;10.70;99.90;10.70;101363.00;;;;4929870;28;92790;-64
2021/11/20 09:21:23;;;;;;;13.13;6.53;;;10.80;99.90;10.80;101360.00;;;;4931088;28;92973;-65
2021/11/20 09:23:51;;;;;;;12.93;7.03;;;10.70;99.90;10.80;101364.00;;;;4931747;28;93576;-66
2021/11/20 09:26:19;;;;;;;10.43;6.80;;;10.80;99.90;10.80;101357.00;;;;4930814;28;93310;-66
2021/11/20 09:28:46;;;;;;;13.17;6.33;;;10.80;99.90;10.90;101348.00;;;;4929055;28;92729;-65
2021/11/20 09:31:13;;;;;;;11.17;6.70;;;10.80;99.90;10.90;101349.00;;;;4930327;28;94194;-65
2021/11/20 09:33:39;;;;;;;10.67;6.47;;;10.90;99.90;10.90;101356.00;;;;4931153;28;94000;-64
2021/11/20 09:36:06;;;;;;;9.80;5.57;;;10.90;99.90;11.00;101337.00;;;;4930390;28;93348;-64
2021/11/20 09:38:33;;;;;;;11.70;6.60;;;10.90;99.90;11.00;101343.00;;;;4925446;28;92605;-65
2021/11/20 09:41:12;;;;;;;11.50;6.73;;;11.00;99.90;11.00;101343.00;;;;4928860;28;92946;-65
2021/11/20 09:43:46;;;;;;;11.70;6.53;;;11.00;99.90;11.10;101335.00;;;;4929896;28;111733;-65
2021/11/20 09:46:26;;;;;;;12.17;6.37;;;11.10;99.90;11.10;101334.00;;;;4927152;28;93838;-64
2021/11/20 09:48:58;;;;;;;13.70;6.13;;;11.10;99.90;11.20;101330.00;;;;4931612;28;92042;-64
2021/11/20 09:51:54;;;;;;;11.43;5.67;;;11.20;99.90;11.20;101329.00;;;;4928752;28;92790;-64
2021/11/20 09:54:35;;;;;;;7.57;5.77;;;11.20;99.90;11.30;101330.00;;;;4925725;28;93225;-64
2021/11/20 09:57:07;;;;;;;6.30;4.77;;;11.30;99.90;11.30;101313.00;;;;4927797;28;93941;-64
2021/11/20 09:59:49;;;;;;;10.23;6.37;;;11.30;99.90;11.40;101311.00;;;;4929980;28;96754;-64
2021/11/20 10:02:31;;;;;;;9.80;6.50;;;11.30;99.90;11.40;101309.00;;;;4930822;28;92790;-65
2021/11/20 10:05:22;;;;;;;8.43;6.27;;;11.40;99.90;11.40;101310.00;;;;4930270;28;93931;-64
2021/11/20 10:08:22;;;;;;;7.73;5.70;;;11.40;99.90;11.50;101315.00;;;;4924140;28;92885;-64
2021/11/20 10:11:00;;;;;;;8.93;6.00;;;11.50;99.90;11.50;101302.00;;;;4930954;28;92955;-65
2021/11/20 10:13:31;;;;;;;11.90;6.83;;;11.50;99.90;11.50;101303.00;;;;4930435;28;92962;-64
2021/11/20 10:16:12;;;;;;;8.00;5.27;;;11.50;99.90;11.50;101297.00;;;;4930078;28;111249;-65
2021/11/20 10:19:11;;;;;;;7.30;5.33;;;11.50;99.90;11.50;101306.00;;;;4930029;28;92791;-65
2021/11/20 10:21:54;;;;;;;10.77;4.83;;;11.50;99.90;11.50;101291.00;;;;4929943;28;93156;-64
2021/11/20 10:25:16;;;;;;;10.67;5.60;;;11.50;99.90;11.50;101289.00;;;;4930459;28;93866;-65
2021/11/20 10:28:23;;;;;;;7.63;4.50;;;11.60;99.90;11.50;101291.00;;;;4930088;28;93297;-64
2021/11/20 10:31:08;;;;;;;11.27;4.57;;;11.60;99.90;11.60;101283.00;;;;4929999;28;92975;-64
2021/11/20 10:33:40;;;;;;;9.70;4.63;;;11.60;99.90;11.60;101287.00;;;;4929501;28;92916;-63
2021/11/20 10:36:34;;;;;;;8.27;5.33;;;11.60;99.90;11.60;101284.00;;;;4929960;28;92999;-64
2021/11/20 10:39:17;;;;;;;13.07;5.23;;;11.60;99.90;11.60;101267.00;;;;4928824;28;94021;-63
2021/11/20 10:42:00;;;;;;;10.93;5.83;;;11.70;99.90;11.70;101271.00;;;;4929858;28;92935;-63
2021/11/20 10:44:48;;;;;;;9.87;5.00;;;11.70;99.90;11.70;101264.00;;;;4930662;28;92062;-63
2021/11/20 10:47:14;;;;;;;7.50;4.67;;;11.70;99.90;11.70;101269.00;;;;4930299;28;92966;-63
2021/11/20 10:50:19;;;;;;;9.50;4.20;;;11.70;99.90;11.70;101266.00;;;;4929389;28;94071;-64
2021/11/20 10:53:25;;;;;;;9.93;5.30;;;11.70;99.90;11.70;101272.00;;;;4929820;28;94174;-64
2021/11/20 10:56:09;;;;;;;9.43;5.57;;;11.70;99.90;11.70;101272.00;;;;4929520;28;92923;-63
2021/11/20 10:59:36;;;;;;;9.30;6.40;;;11.70;99.90;11.70;101257.00;;;;4927320;28;92964;-64
2021/11/20 11:02:23;;;;;;;12.50;4.77;;;11.70;99.90;11.70;101251.00;;;;4928710;28;121895;-64
2021/11/20 11:05:15;;;;;;;6.87;5.00;;;11.70;99.90;11.70;101245.00;;;;4931129;28;111166;-64
2021/11/20 11:08:19;;;;;;;9.13;5.43;;;11.70;99.90;11.70;101247.00;;;;4933382;28;93054;-64